createdAt,value
2023-05-24T00:00:53.436Z,16.08
2023-05-24T00:02:55.555Z,16.07
2023-05-24T00:05:01.293Z,16.12
2023-05-24T00:07:03.679Z,16.19
2023-05-24T00:09:05.722Z,16.04
2023-05-24T00:11:07.734Z,16.17
2023-05-24T00:13:09.647Z,16.19
2023-05-24T00:15:11.756Z,16.19
2023-05-24T00:17:14.232Z,16.20
2023-05-24T00:19:18.849Z,16.00
2023-05-24T00:21:21.128Z,16.06
2023-05-24T00:23:23.011Z,16.12
2023-05-24T00:25:25.079Z,16.04
2023-05-24T00:27:26.958Z,16.15
2023-05-24T00:29:30.796Z,16.12
2023-05-24T00:31:34.333Z,15.97
2023-05-24T00:33:36.219Z,16.02
2023-05-24T00:35:38.538Z,16.00
2023-05-24T00:37:45.211Z,16.12
2023-05-24T00:39:47.890Z,16.26
2023-05-24T00:41:49.912Z,16.25
2023-05-24T00:43:51.832Z,16.20
2023-05-24T00:46:14.700Z,16.07
2023-05-24T00:48:16.659Z,16.04
2023-05-24T00:50:20.815Z,15.85
2023-05-24T00:52:23.236Z,16.07
2023-05-24T00:54:27.086Z,16.21
2023-05-24T00:56:29.419Z,16.09
2023-05-24T00:58:32.811Z,16.13
2023-05-24T01:00:34.733Z,16.11
2023-05-24T01:02:38.060Z,16.15
2023-05-24T01:04:40.001Z,16.17
2023-05-24T01:07:00.828Z,16.15
2023-05-24T01:09:06.820Z,16.06
2023-05-24T01:11:26.660Z,16.12
2023-05-24T01:13:42.597Z,16.07
2023-05-24T01:16:00.299Z,16.04
2023-05-24T01:18:08.139Z,16.12
2023-05-24T01:20:13.805Z,16.01
2023-05-24T01:22:25.651Z,16.02
2023-05-24T01:24:42.520Z,15.87
2023-05-24T01:27:03.974Z,15.97
2023-05-24T01:29:06.773Z,15.87
2023-05-24T01:31:09.693Z,15.55
2023-05-24T01:33:12.271Z,15.79
2023-05-24T01:35:14.204Z,15.79
2023-05-24T01:37:16.697Z,15.82
2023-05-24T01:39:19.678Z,15.82
2023-05-24T01:41:26.866Z,15.80
2023-05-24T01:43:35.071Z,15.73
2023-05-24T01:45:56.900Z,15.61
2023-05-24T01:48:18.930Z,15.57
2023-05-24T01:50:29.063Z,15.72
2023-05-24T01:52:33.970Z,15.73
2023-05-24T01:54:39.047Z,15.79
2023-05-24T01:56:43.689Z,15.74
2023-05-24T01:58:47.735Z,15.74
2023-05-24T02:00:51.034Z,15.75
2023-05-24T02:02:53.363Z,15.72
2023-05-24T02:04:56.572Z,15.77
2023-05-24T02:06:58.458Z,15.76
2023-05-24T02:09:00.287Z,15.71
2023-05-24T02:11:02.808Z,15.72
2023-05-24T02:13:04.800Z,15.71
2023-05-24T02:15:07.680Z,15.70
2023-05-24T02:17:09.595Z,15.64
2023-05-24T02:19:11.474Z,15.57
2023-05-24T02:21:13.395Z,15.59
2023-05-24T02:23:15.193Z,15.56
2023-05-24T02:25:17.045Z,15.38
2023-05-24T02:27:19.034Z,15.44
2023-05-24T02:29:21.808Z,15.46
2023-05-24T02:31:23.685Z,15.26
2023-05-24T02:33:25.829Z,15.38
2023-05-24T02:35:27.675Z,15.15
2023-05-24T02:37:29.601Z,15.28
2023-05-24T02:39:31.695Z,15.36
2023-05-24T02:41:33.589Z,15.17
2023-05-24T02:43:35.496Z,15.35
2023-05-24T02:45:37.812Z,15.31
2023-05-24T02:47:39.661Z,15.20
2023-05-24T02:49:41.854Z,15.21
2023-05-24T02:51:43.661Z,15.05
2023-05-24T02:53:45.574Z,15.07
2023-05-24T02:55:47.471Z,15.13
2023-05-24T02:57:49.318Z,15.17
2023-05-24T02:59:51.227Z,15.08
2023-05-24T03:01:53.174Z,15.11
2023-05-24T03:03:55.093Z,15.13
2023-05-24T03:05:56.964Z,15.14
2023-05-24T03:07:58.805Z,15.21
2023-05-24T03:10:00.638Z,15.24
2023-05-24T03:12:02.448Z,15.19
2023-05-24T03:14:04.485Z,14.86
2023-05-24T03:16:06.914Z,15.16
2023-05-24T03:18:08.889Z,15.13
2023-05-24T03:20:11.819Z,15.11
2023-05-24T03:22:13.676Z,15.11
2023-05-24T03:24:15.512Z,15.15
2023-05-24T03:26:18.978Z,15.08
2023-05-24T03:28:22.462Z,15.08
2023-05-24T03:30:24.356Z,15.14
2023-05-24T03:32:26.198Z,15.17
2023-05-24T03:34:28.035Z,15.11
2023-05-24T03:36:29.919Z,15.10
2023-05-24T03:38:33.820Z,15.09
2023-05-24T03:40:36.824Z,15.11
2023-05-24T03:42:38.938Z,15.14
2023-05-24T03:44:41.147Z,14.97
2023-05-24T03:46:43.130Z,14.94
2023-05-24T03:48:45.096Z,14.89
2023-05-24T03:50:48.047Z,14.91
2023-05-24T03:52:50.731Z,14.86
2023-05-24T03:54:52.584Z,14.81
2023-05-24T03:56:54.468Z,14.79
2023-05-24T03:59:00.678Z,14.52
2023-05-24T04:01:02.684Z,14.66
2023-05-24T04:03:06.926Z,14.67
2023-05-24T04:05:10.429Z,14.71
2023-05-24T04:07:13.938Z,14.70
2023-05-24T04:09:15.860Z,14.75
2023-05-24T04:11:17.763Z,14.76
2023-05-24T04:13:19.648Z,14.67
2023-05-24T04:15:21.552Z,14.64
2023-05-24T04:17:24.976Z,14.59
2023-05-24T04:19:27.110Z,14.61
2023-05-24T04:21:29.289Z,14.69
2023-05-24T04:23:31.229Z,14.71
2023-05-24T04:25:33.724Z,14.64
2023-05-24T04:27:36.576Z,14.68
2023-05-24T04:29:42.303Z,14.67
2023-05-24T04:31:45.200Z,14.73
2023-05-24T04:33:48.036Z,14.67
2023-05-24T04:35:49.930Z,14.66
2023-05-24T04:37:52.606Z,14.71
2023-05-24T04:39:54.472Z,14.57
2023-05-24T04:41:58.135Z,14.68
2023-05-24T04:44:00.059Z,14.72
2023-05-24T04:46:02.109Z,14.67
2023-05-24T04:48:05.291Z,14.71
2023-05-24T04:50:08.252Z,14.78
2023-05-24T04:52:10.144Z,14.64
2023-05-24T04:54:12.053Z,14.67
2023-05-24T04:56:16.183Z,14.73
2023-05-24T04:58:18.180Z,14.77
2023-05-24T05:00:21.630Z,14.82
2023-05-24T05:02:23.528Z,14.82
2023-05-24T05:04:25.383Z,14.80
2023-05-24T05:06:27.245Z,14.73
2023-05-24T05:08:29.057Z,14.79
2023-05-24T05:10:31.130Z,14.83
2023-05-24T05:12:32.960Z,14.83
2023-05-24T05:14:34.807Z,14.87
2023-05-24T05:16:36.986Z,14.52
2023-05-24T05:18:39.161Z,14.66
2023-05-24T05:20:41.305Z,14.73
2023-05-24T05:22:47.884Z,14.79
2023-05-24T05:24:49.799Z,14.82
2023-05-24T05:26:51.740Z,14.80
2023-05-24T05:28:55.037Z,14.78
2023-05-24T05:30:57.084Z,14.73
2023-05-24T05:32:59.283Z,14.80
2023-05-24T05:35:01.385Z,14.74
2023-05-24T05:37:03.276Z,14.75
2023-05-24T05:39:05.183Z,14.84
2023-05-24T05:41:07.557Z,14.86
2023-05-24T05:43:09.557Z,14.82
2023-05-24T05:45:12.131Z,14.80
2023-05-24T05:47:13.989Z,14.74
2023-05-24T05:49:18.569Z,14.82
2023-05-24T05:51:20.527Z,14.85
2023-05-24T05:53:22.418Z,14.83
2023-05-24T05:55:25.217Z,14.84
2023-05-24T05:57:27.347Z,14.85
2023-05-24T05:59:29.251Z,14.85
2023-05-24T06:01:31.170Z,14.87
2023-05-24T06:03:33.146Z,14.94
2023-05-24T06:05:35.282Z,14.94
2023-05-24T06:07:38.840Z,15.02
2023-05-24T06:09:41.166Z,14.93
2023-05-24T06:11:45.168Z,14.94
2023-05-24T06:13:47.053Z,14.89
2023-05-24T06:15:50.257Z,14.98
2023-05-24T06:17:52.917Z,15.00
2023-05-24T06:19:56.087Z,14.99
2023-05-24T06:21:58.065Z,14.99
2023-05-24T06:24:02.673Z,15.01
2023-05-24T06:26:04.936Z,15.06
2023-05-24T06:28:06.923Z,15.11
2023-05-24T06:30:09.585Z,15.09
2023-05-24T06:32:11.889Z,15.05
2023-05-24T06:34:17.191Z,15.09
2023-05-24T06:36:19.103Z,15.08
2023-05-24T06:38:21.092Z,15.18
2023-05-24T06:40:23.135Z,15.18
2023-05-24T06:42:25.047Z,15.18
2023-05-24T06:44:34.037Z,15.22
2023-05-24T06:46:36.578Z,15.28
2023-05-24T06:48:38.606Z,15.31
2023-05-24T06:50:42.561Z,15.24
2023-05-24T06:52:45.041Z,15.30
2023-05-24T06:54:46.949Z,15.28
2023-05-24T06:56:48.924Z,15.35
2023-05-24T06:58:51.184Z,15.38
2023-05-24T07:00:53.430Z,15.40
2023-05-24T07:02:56.678Z,15.40
2023-05-24T07:04:59.132Z,15.38
2023-05-24T07:07:01.988Z,15.39
2023-05-24T07:09:04.732Z,15.52
2023-05-24T07:11:08.050Z,15.54
2023-05-24T07:13:10.217Z,15.54
2023-05-24T07:15:12.166Z,15.56
2023-05-24T07:17:14.262Z,15.54
2023-05-24T07:19:16.369Z,15.64
2023-05-24T07:21:18.444Z,15.63
2023-05-24T07:23:20.470Z,15.75
2023-05-24T07:25:23.234Z,15.70
2023-05-24T07:27:25.449Z,15.75
2023-05-24T07:29:27.788Z,15.71
2023-05-24T07:31:32.616Z,15.81
2023-05-24T07:33:38.041Z,15.88
2023-05-24T07:35:40.409Z,15.95
2023-05-24T07:37:42.455Z,15.95
2023-05-24T07:39:45.039Z,15.98
2023-05-24T07:41:47.111Z,15.87
2023-05-24T07:43:49.516Z,15.92
2023-05-24T07:45:51.742Z,16.00
2023-05-24T07:47:56.578Z,16.03
2023-05-24T07:49:58.876Z,15.97
2023-05-24T07:52:00.884Z,16.06
2023-05-24T07:54:02.850Z,15.97
2023-05-24T07:56:05.688Z,16.11
2023-05-24T07:58:08.256Z,16.19
2023-05-24T08:00:14.834Z,16.28
2023-05-24T08:02:17.338Z,16.29
2023-05-24T08:04:19.527Z,16.35
2023-05-24T08:06:22.319Z,16.39
2023-05-24T08:08:26.935Z,16.41
2023-05-24T08:10:29.488Z,16.41
2023-05-24T08:12:32.039Z,16.43
2023-05-24T08:14:34.911Z,16.47
2023-05-24T08:16:37.224Z,16.60
2023-05-24T08:18:39.609Z,16.58
2023-05-24T08:20:42.415Z,16.56
2023-05-24T08:22:44.811Z,16.71
2023-05-24T08:24:47.788Z,16.73
2023-05-24T08:26:52.407Z,16.74
2023-05-24T08:28:55.382Z,16.76
2023-05-24T08:30:59.055Z,16.80
2023-05-24T08:33:01.652Z,16.84
2023-05-24T08:35:19.543Z,16.88
2023-05-24T08:37:23.956Z,16.91
2023-05-24T08:39:26.506Z,16.99
2023-05-24T08:41:29.126Z,17.05
2023-05-24T08:43:32.965Z,17.11
2023-05-24T08:45:37.808Z,17.19
2023-05-24T08:47:41.430Z,17.17
2023-05-24T08:49:44.057Z,17.10
2023-05-24T08:51:46.813Z,17.20
2023-05-24T08:53:51.216Z,17.29
2023-05-24T08:55:56.141Z,17.38
2023-05-24T08:57:58.939Z,17.35
2023-05-24T09:00:01.485Z,17.41
2023-05-24T09:02:05.307Z,17.53
2023-05-24T09:04:09.345Z,17.63
2023-05-24T09:06:13.473Z,17.62
2023-05-24T09:08:18.734Z,17.61
2023-05-24T09:10:22.766Z,17.72
2023-05-24T09:12:36.722Z,17.77
2023-05-24T09:14:46.700Z,17.78
2023-05-24T09:16:49.859Z,17.92
2023-05-24T09:18:52.102Z,17.99
2023-05-24T09:20:54.731Z,18.11
2023-05-24T09:22:58.249Z,18.23
2023-05-24T09:25:02.400Z,18.35
2023-05-24T09:27:07.617Z,18.41
2023-05-24T09:29:09.745Z,18.55
2023-05-24T09:31:12.650Z,18.69
2023-05-24T09:33:15.218Z,18.82
2023-05-24T09:35:17.444Z,18.91
2023-05-24T09:37:25.705Z,19.03
2023-05-24T09:39:29.833Z,19.17
2023-05-24T09:41:33.132Z,19.30
2023-05-24T09:43:47.447Z,19.38
2023-05-24T09:45:49.641Z,19.62
2023-05-24T09:47:53.410Z,19.71
2023-05-24T09:49:55.606Z,19.94
2023-05-24T09:51:58.554Z,19.98
2023-05-24T09:54:03.316Z,20.21
2023-05-24T09:56:08.979Z,20.22
2023-05-24T09:58:13.386Z,20.30
2023-05-24T10:00:22.752Z,20.34
2023-05-24T10:02:27.573Z,20.57
2023-05-24T10:04:34.951Z,20.54
2023-05-24T10:06:38.778Z,20.56
2023-05-24T10:08:41.125Z,20.74
2023-05-24T10:10:44.594Z,20.73
2023-05-24T10:12:48.010Z,20.91
2023-05-24T10:14:52.587Z,20.89
2023-05-24T10:16:54.995Z,21.14
2023-05-24T10:18:57.490Z,21.30
2023-05-24T10:21:02.065Z,21.41
2023-05-24T10:23:08.269Z,21.51
2023-05-24T10:25:18.990Z,21.60
2023-05-24T10:27:25.943Z,21.75
2023-05-24T10:29:53.291Z,21.85
2023-05-24T10:31:56.415Z,21.88
2023-05-24T10:34:07.026Z,21.93
2023-05-24T10:36:14.677Z,22.10
2023-05-24T10:38:17.596Z,22.23
2023-05-24T10:40:25.613Z,22.35
2023-05-24T10:42:31.593Z,22.45
2023-05-24T10:44:34.198Z,22.46
2023-05-24T10:46:36.816Z,22.39
2023-05-24T10:48:41.008Z,22.54
2023-05-24T10:50:44.965Z,22.62
2023-05-24T10:52:50.167Z,22.60
2023-05-24T10:55:05.393Z,22.65
2023-05-24T10:57:08.503Z,22.73
2023-05-24T10:59:24.091Z,22.88
2023-05-24T11:01:27.882Z,23.01
2023-05-24T11:03:34.134Z,23.07
2023-05-24T11:05:50.173Z,23.17
2023-05-24T11:07:59.968Z,23.30
2023-05-24T11:10:09.928Z,23.28
2023-05-24T11:12:17.059Z,23.43
2023-05-24T11:14:21.012Z,23.47
2023-05-24T11:16:40.825Z,23.53
2023-05-24T11:18:56.295Z,23.47
2023-05-24T11:21:03.894Z,23.53
2023-05-24T11:23:07.844Z,23.37
2023-05-24T11:25:10.982Z,23.18
2023-05-24T11:27:14.762Z,23.37
2023-05-24T11:29:19.511Z,23.37
2023-05-24T11:31:28.227Z,23.49
2023-05-24T11:33:30.779Z,23.52
2023-05-24T11:35:33.070Z,23.60
2023-05-24T11:37:45.643Z,23.66
2023-05-24T11:39:54.644Z,23.60
2023-05-24T11:41:57.127Z,23.55
2023-05-24T11:43:59.287Z,23.50
2023-05-24T11:46:01.685Z,23.59
2023-05-24T11:48:07.268Z,23.55
2023-05-24T11:50:09.476Z,23.69
2023-05-24T11:52:11.360Z,23.80
2023-05-24T11:54:21.798Z,24.02
2023-05-24T11:56:27.436Z,24.10
2023-05-24T11:58:47.072Z,24.13
2023-05-24T12:00:50.260Z,24.31
2023-05-24T12:02:56.360Z,24.48
2023-05-24T12:05:19.644Z,24.51
2023-05-24T12:07:24.292Z,24.41
2023-05-24T12:09:28.735Z,24.29
2023-05-24T12:11:33.101Z,24.23
2023-05-24T12:13:37.013Z,24.24
2023-05-24T12:16:15.468Z,24.26
2023-05-24T12:18:21.997Z,24.36
2023-05-24T12:20:25.707Z,24.39
2023-05-24T12:22:32.575Z,24.34
2023-05-24T12:24:38.402Z,24.33
2023-05-24T12:26:43.457Z,24.37
2023-05-24T12:28:51.604Z,24.41
2023-05-24T12:31:17.669Z,24.51
2023-05-24T12:33:40.888Z,24.76
2023-05-24T12:35:43.509Z,24.92
2023-05-24T12:37:46.402Z,25.15
2023-05-24T12:40:01.470Z,25.25
2023-05-24T12:42:23.063Z,25.15
2023-05-24T12:44:37.829Z,24.93
2023-05-24T12:47:04.205Z,25.17
2023-05-24T12:51:38.264Z,25.31
2023-05-24T12:56:06.489Z,25.58
2023-05-24T12:58:17.446Z,25.57
2023-05-24T13:00:39.612Z,25.71
2023-05-24T13:02:46.501Z,25.43
2023-05-24T13:05:07.723Z,25.41
2023-05-24T13:07:10.272Z,25.38
2023-05-24T13:09:14.270Z,25.46
2023-05-24T13:11:25.367Z,25.40
2023-05-24T13:13:29.573Z,25.28
2023-05-24T13:15:43.578Z,25.11
2023-05-24T13:17:47.418Z,25.18
2023-05-24T13:19:49.946Z,25.31
2023-05-24T13:21:53.386Z,25.45
2023-05-24T13:24:10.337Z,25.30
2023-05-24T13:34:42.504Z,25.71
2023-05-24T13:37:06.770Z,25.89
2023-05-24T13:39:38.973Z,26.13
2023-05-24T13:44:28.848Z,26.00
2023-05-24T13:49:03.744Z,25.77
2023-05-24T13:51:05.901Z,25.88
2023-05-24T13:53:08.243Z,26.04
2023-05-24T13:55:10.725Z,26.07
2023-05-24T13:57:12.867Z,26.34
2023-05-24T13:59:15.844Z,26.39
2023-05-24T14:01:17.910Z,26.17
2023-05-24T14:03:20.077Z,26.17
2023-05-24T14:07:28.428Z,25.93
2023-05-24T14:09:30.392Z,26.07
2023-05-24T14:11:32.935Z,26.11
2023-05-24T14:15:40.268Z,26.77
2023-05-24T14:17:42.438Z,26.82
2023-05-24T14:19:44.452Z,27.07
2023-05-24T14:21:46.455Z,27.01
2023-05-24T14:23:48.744Z,27.13
2023-05-24T14:25:52.526Z,27.24
2023-05-24T14:27:58.057Z,27.03
2023-05-24T14:30:00.321Z,27.02
2023-05-24T14:32:02.529Z,27.01
2023-05-24T14:34:04.788Z,27.06
2023-05-24T14:36:07.314Z,27.09
2023-05-24T14:38:11.588Z,27.21
2023-05-24T14:40:14.137Z,27.45
2023-05-24T14:42:16.617Z,27.43
2023-05-24T14:44:19.257Z,27.50
2023-05-24T14:46:21.352Z,27.25
2023-05-24T14:48:23.667Z,27.51
2023-05-24T14:50:25.508Z,27.59
2023-05-24T14:52:32.846Z,27.76
2023-05-24T14:54:34.722Z,27.71
2023-05-24T14:56:36.740Z,28.16
2023-05-24T14:58:38.740Z,28.26
2023-05-24T15:00:42.631Z,28.34
2023-05-24T15:02:45.102Z,28.22
2023-05-24T15:04:47.220Z,28.27
2023-05-24T15:06:49.286Z,28.21
2023-05-24T15:08:52.312Z,28.50
2023-05-24T15:10:55.689Z,28.55
2023-05-24T15:12:58.872Z,28.34
2023-05-24T15:15:02.126Z,28.67
2023-05-24T15:17:04.616Z,28.87
2023-05-24T15:19:08.432Z,28.77
2023-05-24T15:21:10.436Z,28.39
2023-05-24T15:23:12.567Z,28.84
2023-05-24T15:25:15.025Z,28.93
2023-05-24T15:27:17.741Z,28.89
2023-05-24T15:29:20.615Z,28.91
2023-05-24T15:31:22.847Z,29.11
2023-05-24T15:33:26.776Z,29.27
2023-05-24T15:35:28.825Z,29.27
2023-05-24T15:37:30.732Z,29.78
2023-05-24T15:39:33.788Z,29.44
2023-05-24T15:41:37.869Z,29.59
2023-05-24T15:43:40.105Z,29.84
2023-05-24T15:45:44.038Z,29.81
2023-05-24T15:47:46.236Z,30.00
2023-05-24T15:49:48.118Z,30.05
2023-05-24T15:52:03.591Z,29.49
2023-05-24T15:54:06.964Z,29.78
2023-05-24T15:56:10.144Z,29.29
2023-05-24T15:58:13.703Z,29.05
2023-05-24T16:00:16.280Z,29.12
2023-05-24T16:02:21.137Z,29.06
2023-05-24T16:04:23.477Z,29.00
2023-05-24T16:06:25.634Z,28.27
2023-05-24T16:08:28.651Z,27.89
2023-05-24T16:10:31.138Z,27.50
2023-05-24T16:12:33.208Z,27.35
2023-05-24T16:14:37.666Z,27.05
2023-05-24T16:16:39.772Z,27.09
2023-05-24T16:18:42.286Z,26.64
2023-05-24T16:20:46.379Z,26.64
2023-05-24T16:22:49.948Z,26.76
2023-05-24T16:24:53.705Z,26.64
2023-05-24T16:26:57.528Z,26.41
2023-05-24T16:29:00.008Z,26.75
2023-05-24T16:31:04.330Z,26.58
2023-05-24T16:33:07.098Z,26.48
2023-05-24T16:35:10.140Z,26.33
2023-05-24T16:37:13.369Z,26.19
2023-05-24T16:39:15.517Z,26.07
2023-05-24T16:41:17.658Z,25.87
2023-05-24T16:43:20.646Z,25.88
2023-05-24T16:45:23.317Z,25.80
2023-05-24T16:47:28.782Z,25.76
2023-05-24T16:49:32.148Z,25.81
2023-05-24T16:51:34.283Z,25.82
2023-05-24T16:53:36.408Z,25.68
2023-05-24T16:55:39.081Z,25.76
2023-05-24T16:57:42.092Z,25.77
2023-05-24T16:59:45.598Z,25.67
2023-05-24T17:01:51.121Z,25.54
2023-05-24T17:03:54.061Z,25.40
2023-05-24T17:06:01.920Z,25.48
2023-05-24T17:08:06.962Z,25.21
2023-05-24T17:10:09.715Z,24.94
2023-05-24T17:12:11.999Z,25.19
2023-05-24T17:14:14.823Z,25.19
2023-05-24T17:16:19.774Z,24.99
2023-05-24T17:18:30.785Z,24.92
2023-05-24T17:20:33.361Z,24.89
2023-05-24T17:22:35.577Z,24.80
2023-05-24T17:24:37.724Z,24.72
2023-05-24T17:26:41.684Z,24.74
2023-05-24T17:28:45.060Z,24.67
2023-05-24T17:30:47.831Z,24.59
2023-05-24T17:32:52.561Z,24.41
2023-05-24T17:34:54.894Z,24.44
2023-05-24T17:36:57.183Z,24.47
2023-05-24T17:38:59.666Z,24.41
2023-05-24T17:41:01.818Z,24.28
2023-05-24T17:43:04.642Z,24.32
2023-05-24T17:45:08.446Z,24.23
2023-05-24T17:47:11.167Z,24.22
2023-05-24T17:49:16.290Z,24.17
2023-05-24T17:51:20.382Z,24.09
2023-05-24T17:53:31.375Z,23.98
2023-05-24T17:55:35.920Z,23.96
2023-05-24T17:57:38.721Z,23.83
2023-05-24T17:59:41.196Z,23.97
2023-05-24T18:01:44.134Z,23.85
2023-05-24T18:03:46.705Z,23.89
2023-05-24T18:05:48.874Z,23.80
2023-05-24T18:07:50.891Z,23.73
2023-05-24T18:09:52.887Z,23.86
2023-05-24T18:11:55.055Z,23.73
2023-05-24T18:13:57.617Z,23.67
2023-05-24T18:16:00.064Z,23.74
2023-05-24T18:18:02.752Z,23.63
2023-05-24T18:20:05.981Z,23.47
2023-05-24T18:22:08.289Z,23.39
2023-05-24T18:24:10.677Z,23.33
2023-05-24T18:26:12.833Z,23.40
2023-05-24T18:28:15.250Z,23.45
2023-05-24T18:30:17.580Z,23.29
2023-05-24T18:32:19.680Z,23.31
2023-05-24T18:34:21.727Z,23.28
2023-05-24T18:36:23.730Z,23.16
2023-05-24T18:38:25.691Z,23.16
2023-05-24T18:40:27.841Z,23.19
2023-05-24T18:42:29.832Z,23.03
2023-05-24T18:44:31.873Z,23.04
2023-05-24T18:46:33.926Z,23.13
2023-05-24T18:48:36.250Z,23.05
2023-05-24T18:50:38.387Z,23.13
2023-05-24T18:52:40.355Z,23.11
2023-05-24T18:54:42.266Z,23.13
2023-05-24T18:56:45.697Z,23.08
2023-05-24T18:58:49.856Z,23.03
2023-05-24T19:00:52.246Z,22.95
2023-05-24T19:02:55.677Z,23.05
2023-05-24T19:04:58.279Z,22.98
2023-05-24T19:07:00.530Z,22.97
2023-05-24T19:09:04.814Z,22.96
2023-05-24T19:11:06.625Z,22.90
2023-05-24T19:13:08.574Z,22.84
2023-05-24T19:15:11.048Z,22.72
2023-05-24T19:17:12.889Z,22.57
2023-05-24T19:19:14.736Z,22.55
2023-05-24T19:21:16.678Z,22.65
2023-05-24T19:23:18.518Z,22.44
2023-05-24T19:25:21.498Z,22.42
2023-05-24T19:27:24.676Z,22.44
2023-05-24T19:29:26.754Z,22.40
2023-05-24T19:31:29.635Z,22.33
2023-05-24T19:33:31.518Z,22.30
2023-05-24T19:35:34.759Z,22.13
2023-05-24T19:37:36.566Z,22.19
2023-05-24T19:39:38.775Z,22.09
2023-05-24T19:41:41.131Z,22.18
2023-05-24T19:43:43.438Z,22.02
2023-05-24T19:45:45.670Z,22.05
2023-05-24T19:47:47.938Z,22.00
2023-05-24T19:49:49.832Z,22.01
2023-05-24T19:51:52.353Z,22.00
2023-05-24T19:53:57.553Z,22.03
2023-05-24T19:55:59.486Z,21.83
2023-05-24T19:58:01.357Z,21.74
2023-05-24T20:00:04.790Z,21.87
2023-05-24T20:02:07.816Z,21.72
2023-05-24T20:04:12.889Z,21.80
2023-05-24T20:06:18.532Z,21.73
2023-05-24T20:08:21.675Z,21.36
2023-05-24T20:10:23.934Z,21.49
2023-05-24T20:12:26.073Z,21.51
2023-05-24T20:14:31.614Z,21.50
2023-05-24T20:16:33.846Z,21.48
2023-05-24T20:18:35.818Z,21.43
2023-05-24T20:20:37.802Z,21.21
2023-05-24T20:22:39.775Z,21.23
2023-05-24T20:24:41.758Z,21.31
2023-05-24T20:26:43.709Z,21.22
2023-05-24T20:28:46.577Z,21.02
2023-05-24T20:30:48.612Z,20.86
2023-05-24T20:32:50.839Z,20.60
2023-05-24T20:34:52.709Z,20.35
2023-05-24T20:36:54.626Z,20.39
2023-05-24T20:38:56.634Z,20.32
2023-05-24T20:40:58.573Z,20.21
2023-05-24T20:43:00.508Z,20.13
2023-05-24T20:45:03.785Z,20.28
2023-05-24T20:47:06.132Z,20.14
2023-05-24T20:49:08.044Z,20.26
2023-05-24T20:51:10.213Z,20.25
2023-05-24T20:53:12.152Z,19.97
2023-05-24T20:55:16.349Z,19.89
2023-05-24T20:57:20.781Z,19.82
2023-05-24T20:59:22.715Z,19.86
2023-05-24T21:01:24.712Z,19.73
2023-05-24T21:03:27.099Z,19.82
2023-05-24T21:05:29.055Z,19.73
2023-05-24T21:07:31.231Z,19.69
2023-05-24T21:09:33.145Z,19.72
2023-05-24T21:11:35.065Z,19.75
2023-05-24T21:13:39.491Z,19.84
2023-05-24T21:15:44.644Z,19.48
2023-05-24T21:17:47.383Z,19.50
2023-05-24T21:19:49.371Z,19.29
2023-05-24T21:21:51.297Z,19.40
2023-05-24T21:23:53.231Z,19.33
2023-05-24T21:25:55.090Z,19.05
2023-05-24T21:27:57.597Z,19.03
2023-05-24T21:29:59.451Z,18.91
2023-05-24T21:32:01.299Z,19.00
2023-05-24T21:34:03.202Z,18.82
2023-05-24T21:36:05.186Z,19.00
2023-05-24T21:38:07.102Z,18.97
2023-05-24T21:40:10.055Z,18.77
2023-05-24T21:42:11.961Z,18.90
2023-05-24T21:44:13.859Z,19.06
2023-05-24T21:46:16.159Z,19.00
2023-05-24T21:48:18.342Z,19.10
2023-05-24T21:50:20.154Z,18.97
2023-05-24T21:52:23.090Z,19.04
2023-05-24T21:54:24.953Z,19.17
2023-05-24T21:56:27.231Z,19.22
2023-05-24T21:58:29.406Z,19.17
2023-05-24T22:00:31.908Z,19.07
2023-05-24T22:02:34.672Z,19.01
2023-05-24T22:04:36.624Z,19.09
2023-05-24T22:06:41.481Z,19.05
2023-05-24T22:08:43.300Z,18.89
2023-05-24T22:10:45.176Z,18.83
2023-05-24T22:12:48.315Z,18.83
2023-05-24T22:14:50.135Z,18.81
2023-05-24T22:16:52.024Z,18.53
2023-05-24T22:18:55.736Z,18.68
2023-05-24T22:20:58.607Z,18.61
2023-05-24T22:23:00.589Z,18.59
2023-05-24T22:25:02.614Z,18.60
2023-05-24T22:27:05.116Z,18.55
2023-05-24T22:29:06.970Z,18.29
2023-05-24T22:31:08.774Z,18.46
2023-05-24T22:33:10.555Z,18.48
2023-05-24T22:35:12.468Z,18.43
2023-05-24T22:37:16.988Z,18.46
2023-05-24T22:39:19.223Z,18.26
2023-05-24T22:41:22.788Z,18.13
2023-05-24T22:43:24.584Z,18.28
2023-05-24T22:45:26.473Z,17.89
2023-05-24T22:47:28.915Z,18.05
2023-05-24T22:49:34.297Z,18.06
2023-05-24T22:51:37.788Z,18.10
2023-05-24T22:53:39.787Z,18.14
2023-05-24T22:55:41.889Z,18.12
2023-05-24T22:57:44.103Z,18.15
2023-05-24T22:59:45.967Z,18.12
2023-05-24T23:01:47.977Z,18.15
2023-05-24T23:03:49.879Z,18.16
2023-05-24T23:05:53.787Z,18.17
2023-05-24T23:07:55.656Z,18.17
2023-05-24T23:09:59.869Z,18.14
2023-05-24T23:12:07.599Z,18.11
2023-05-24T23:14:11.385Z,17.93
2023-05-24T23:16:18.091Z,17.73
2023-05-24T23:18:22.434Z,17.68
2023-05-24T23:20:24.680Z,17.48
2023-05-24T23:22:26.639Z,17.41
2023-05-24T23:24:28.457Z,17.50
2023-05-24T23:26:30.238Z,17.35
2023-05-24T23:28:32.811Z,17.42
2023-05-24T23:30:34.690Z,17.48
2023-05-24T23:32:36.541Z,17.52
2023-05-24T23:34:38.458Z,17.58
2023-05-24T23:36:40.243Z,17.51
2023-05-24T23:38:42.072Z,17.60
2023-05-24T23:40:43.951Z,17.66
2023-05-24T23:42:45.763Z,17.57
2023-05-24T23:44:50.734Z,17.65
2023-05-24T23:46:53.227Z,17.66
2023-05-24T23:48:55.048Z,17.74
2023-05-24T23:50:56.793Z,17.75
2023-05-24T23:52:58.562Z,17.71
2023-05-24T23:55:00.375Z,17.66
2023-05-24T23:57:07.697Z,17.77
2023-05-24T23:59:09.540Z,17.77
